Time;durP1;ratioP1;P1;durP2;ratioP2;P2;SDS_P1;SDS_P2;PMS_P1;PMS_P2;Temp;Humidity;BMP_temperature;BMP_pressure;BME280_temperature;BME280_humidity;BME280_pressure;Samples;Min_cycle;Max_cycle;Signal;HPM_P1;HPM_P2
2021/08/02 00:00:16;;;;;;;25.60;7.97;;;;;;;27.61;46.39;100446.59;5110029;28;20205;-60
2021/08/02 00:02:54;;;;;;;21.43;7.30;;;;;;;27.57;45.84;100444.09;5111058;28;20165;-60
2021/08/02 00:05:21;;;;;;;23.50;7.40;;;;;;;27.49;46.44;100433.97;5111320;28;20261;-60
2021/08/02 00:07:55;;;;;;;20.40;6.70;;;;;;;27.47;47.34;100443.06;5091988;28;20289;-60
2021/08/02 00:10:21;;;;;;;22.13;6.83;;;;;;;27.41;46.84;100447.34;5108944;28;20650;-61
2021/08/02 00:12:48;;;;;;;21.27;6.73;;;;;;;27.34;46.41;100445.19;5111073;28;20170;-59
2021/08/02 00:15:16;;;;;;;21.80;6.73;;;;;;;27.32;44.97;100444.97;5111754;28;20182;-60
2021/08/02 00:17:44;;;;;;;19.27;6.33;;;;;;;27.18;44.61;100444.25;5110266;28;20174;-60
2021/08/02 00:20:14;;;;;;;29.20;6.93;;;;;;;27.23;43.87;100451.88;5111071;28;20211;-61
2021/08/02 00:22:40;;;;;;;21.13;6.63;;;;;;;27.16;44.18;100448.91;5092891;28;20182;-61
2021/08/02 00:25:07;;;;;;;19.20;6.17;;;;;;;27.18;43.71;100449.19;5110997;28;20170;-60
2021/08/02 00:27:33;;;;;;;29.20;6.37;;;;;;;27.14;44.01;100454.41;5110131;28;20201;-60
2021/08/02 00:30:00;;;;;;;21.43;6.53;;;;;;;27.14;44.49;100449.50;5110823;28;20182;-61
2021/08/02 00:32:25;;;;;;;22.13;6.40;;;;;;;27.17;43.96;100442.72;5110925;28;20185;-60
2021/08/02 00:34:51;;;;;;;17.70;6.43;;;;;;;27.14;45.69;100440.97;5103348;28;20586;-60
2021/08/02 00:37:50;;;;;;;22.50;6.70;;;;;;;27.20;46.55;100446.53;5110194;28;20178;-60
2021/08/02 00:40:53;;;;;;;21.07;6.67;;;;;;;27.18;46.26;100447.09;5102860;28;20193;-60
2021/08/02 00:43:30;;;;;;;13.70;5.70;;;;;;;27.19;46.65;100448.63;5092518;28;20305;-60
2021/08/02 00:45:58;;;;;;;20.20;6.70;;;;;;;26.39;45.22;100325.50;5109770;28;20237;-60
2021/08/02 00:48:27;;;;;;;23.93;6.43;;;;;;;27.07;46.00;100433.09;5110864;28;20231;-60
2021/08/02 00:50:58;;;;;;;17.43;6.10;;;;;;;27.15;45.98;100441.72;5110400;28;20221;-60
2021/08/02 00:53:26;;;;;;;18.27;5.57;;;;;;;27.14;45.74;100460.09;5110854;28;20189;-60
2021/08/02 00:56:01;;;;;;;21.20;6.10;;;;;;;27.10;45.94;100449.06;5109890;28;20283;-60
2021/08/02 00:58:30;;;;;;;21.80;6.17;;;;;;;27.05;44.21;100440.66;5105967;28;20182;-60
2021/08/02 01:00:56;;;;;;;28.23;6.43;;;;;;;27.08;45.94;100448.09;5100076;28;20207;-61
2021/08/02 01:03:23;;;;;;;19.13;6.60;;;;;;;26.97;45.46;100440.56;5110749;28;20227;-60
2021/08/02 01:05:52;;;;;;;22.27;7.03;;;;;;;26.95;44.26;100437.50;5109721;28;20584;-60
2021/08/02 01:08:23;;;;;;;22.00;6.07;;;;;;;26.93;44.09;100445.06;5110769;28;20179;-60
2021/08/02 01:10:55;;;;;;;19.50;6.03;;;;;;;26.50;44.56;100390.63;5110210;28;20186;-60
2021/08/02 01:13:24;;;;;;;20.40;6.17;;;;;;;26.82;44.05;100445.28;5110784;28;20171;-60
2021/08/02 01:15:58;;;;;;;22.90;5.90;;;;;;;26.79;44.73;100441.47;5111547;28;20182;-61
2021/08/02 01:18:23;;;;;;;19.10;6.60;;;;;;;26.06;44.76;100335.47;5114437;28;20652;-60
2021/08/02 01:20:51;;;;;;;18.33;5.93;;;;;;;26.74;45.56;100450.88;5114573;28;20189;-60
2021/08/02 01:23:18;;;;;;;27.20;6.40;;;;;;;26.37;45.93;100399.16;5114512;28;20181;-60
2021/08/02 01:25:43;;;;;;;22.47;6.37;;;;;;;26.56;45.73;100453.84;5095537;28;20213;-61
2021/08/02 01:28:14;;;;;;;21.83;6.00;;;;;;;26.39;46.25;100453.34;5113714;28;20267;-61
2021/08/02 01:30:49;;;;;;;20.77;6.17;;;;;;;26.03;46.80;100450.16;5114100;28;20558;-60
2021/08/02 01:33:16;;;;;;;20.50;6.50;;;;;;;26.00;46.47;100453.31;5114299;28;20260;-60
2021/08/02 01:35:42;;;;;;;20.30;6.07;;;;;;;26.09;47.19;100453.66;5113692;28;20572;-60
2021/08/02 01:38:10;;;;;;;25.57;5.93;;;;;;;26.02;46.24;100445.03;5113512;28;20175;-60
2021/08/02 01:40:36;;;;;;;22.07;6.90;;;;;;;26.07;46.25;100449.84;5114213;28;20178;-60
2021/08/02 01:43:04;;;;;;;19.03;6.40;;;;;;;26.12;45.95;100444.06;5113733;28;20305;-60
2021/08/02 01:45:37;;;;;;;19.70;6.30;;;;;;;26.22;46.16;100436.66;5113792;28;20174;-60
2021/08/02 01:48:25;;;;;;;23.13;6.63;;;;;;;26.15;47.84;100436.53;5113438;28;20663;-60
2021/08/02 01:51:14;;;;;;;25.40;6.33;;;;;;;25.83;47.15;100430.88;5113662;28;20224;-60
2021/08/02 01:54:01;;;;;;;20.07;5.93;;;;;;;25.26;48.11;100331.50;5113878;28;20169;-60
2021/08/02 01:56:55;;;;;;;20.90;7.20;;;;;;;25.99;47.82;100435.50;5112935;28;20300;-60
2021/08/02 01:59:24;;;;;;;22.83;6.43;;;;;;;26.04;47.98;100440.31;5113420;28;20172;-60
2021/08/02 02:01:56;;;;;;;21.53;6.63;;;;;;;26.09;47.97;100436.63;5113724;28;20174;-61
2021/08/02 02:04:27;;;;;;;25.33;6.53;;;;;;;25.61;48.52;100370.88;5113707;28;20162;-60
2021/08/02 02:06:57;;;;;;;22.63;6.33;;;;;;;26.18;48.00;100438.28;5112449;28;20578;-60
2021/08/02 02:09:23;;;;;;;20.30;5.90;;;;;;;26.10;47.12;100437.41;5113412;28;20179;-60
2021/08/02 02:11:51;;;;;;;17.93;6.30;;;;;;;26.09;48.52;100439.47;5113434;28;20226;-60
2021/08/02 02:14:17;;;;;;;25.60;6.53;;;;;;;26.02;50.02;100445.03;5113394;28;20178;-60
2021/08/02 02:16:47;;;;;;;21.03;6.80;;;;;;;25.23;51.15;100332.56;5112578;28;20175;-60
2021/08/02 02:19:14;;;;;;;20.57;6.80;;;;;;;25.70;52.24;100430.81;5113644;28;20648;-60
2021/08/02 02:21:43;;;;;;;21.10;6.73;;;;;;;25.65;55.66;100451.53;5113189;28;20174;-60
2021/08/02 02:24:09;;;;;;;19.43;6.83;;;;;;;25.18;55.00;100373.88;5113150;28;20186;-60
2021/08/02 02:26:36;;;;;;;17.10;6.37;;;;;;;25.67;55.66;100446.09;5112507;28;20198;-60
2021/08/02 02:29:05;;;;;;;20.83;7.00;;;;;;;25.02;55.63;100357.13;5112843;28;20205;-60
2021/08/02 02:31:34;;;;;;;22.63;6.53;;;;;;;25.43;55.17;100408.59;5112946;28;20307;-60
2021/08/02 02:34:01;;;;;;;20.57;6.83;;;;;;;25.54;54.79;100426.19;5112901;28;20173;-60
2021/08/02 02:36:29;;;;;;;19.60;6.23;;;;;;;25.75;54.62;100452.66;5112077;28;20174;-60
2021/08/02 02:38:54;;;;;;;19.60;6.67;;;;;;;25.86;55.22;100465.91;5112768;28;20178;-60
2021/08/02 02:41:22;;;;;;;23.30;6.47;;;;;;;25.63;55.65;100442.81;5113149;28;20215;-60
2021/08/02 02:43:49;;;;;;;19.03;6.20;;;;;;;25.07;55.89;100359.88;5112530;28;20305;-59
2021/08/02 02:46:19;;;;;;;24.23;6.77;;;;;;;25.20;56.09;100385.47;5111691;28;20227;-60
2021/08/02 02:48:47;;;;;;;28.80;7.60;;;;;;;25.63;56.31;100462.69;5112787;28;20189;-60
2021/08/02 02:51:14;;;;;;;26.50;6.83;;;;;;;25.63;55.96;100462.69;5112545;28;20174;-60
2021/08/02 02:53:41;;;;;;;23.50;6.73;;;;;;;25.62;55.80;100455.47;5112709;28;20199;-60
2021/08/02 02:56:11;;;;;;;25.37;7.03;;;;;;;25.45;55.91;100437.97;5111652;28;20703;-61
2021/08/02 02:58:37;;;;;;;20.10;6.90;;;;;;;25.48;55.96;100470.16;5112167;28;20181;-60
2021/08/02 03:01:04;;;;;;;34.67;7.83;;;;;;;25.45;55.61;100474.84;5112218;28;20190;-60
2021/08/02 03:03:34;;;;;;;28.13;6.87;;;;;;;25.47;54.63;100465.75;5112438;28;20236;-60
2021/08/02 03:06:00;;;;;;;23.07;7.40;;;;;;;25.40;55.48;100466.41;5111233;28;20714;-60
2021/08/02 03:08:27;;;;;;;27.83;7.87;;;;;;;25.47;55.47;100477.91;5112656;28;20171;-60
2021/08/02 03:10:54;;;;;;;33.17;7.90;;;;;;;25.46;55.44;100486.94;5111667;28;20189;-60
2021/08/02 03:13:21;;;;;;;30.97;7.57;;;;;;;25.48;55.47;100485.09;5112205;28;20173;-59
2021/08/02 03:15:46;;;;;;;38.53;8.17;;;;;;;25.51;55.39;100494.59;5111571;28;20203;-59
2021/08/02 03:18:12;;;;;;;25.23;8.00;;;;;;;25.52;55.14;100496.13;5112010;28;20171;-60
2021/08/02 03:20:37;;;;;;;32.73;7.53;;;;;;;25.50;55.10;100499.53;5112159;28;20178;-60
2021/08/02 03:23:10;;;;;;;36.93;7.43;;;;;;;25.50;54.84;100507.25;5112009;28;20282;-60
2021/08/02 03:25:43;;;;;;;30.13;7.80;;;;;;;25.03;54.11;100440.88;5111649;28;20236;-60
2021/08/02 03:28:21;;;;;;;26.13;7.07;;;;;;;25.43;54.21;100505.81;5111486;28;20223;-60
2021/08/02 03:30:49;;;;;;;27.00;7.23;;;;;;;25.27;54.70;100501.13;5111610;28;20234;-60
2021/08/02 03:33:28;;;;;;;18.97;6.17;;;;;;;24.73;54.40;100424.00;5111785;28;20205;-60
2021/08/02 03:35:56;;;;;;;20.87;7.50;;;;;;;25.19;54.57;100511.50;5110745;28;20253;-60
2021/08/02 03:38:23;;;;;;;21.17;6.40;;;;;;;24.71;54.60;100502.34;5111406;28;20174;-60
2021/08/02 03:40:49;;;;;;;26.90;7.00;;;;;;;24.74;53.06;100510.56;5111552;28;20174;-60
2021/08/02 03:43:16;;;;;;;22.27;6.20;;;;;;;24.66;53.73;100503.94;5111756;28;20218;-60
2021/08/02 03:45:42;;;;;;;21.83;5.80;;;;;;;24.67;54.01;100513.97;5111009;28;20592;-60
2021/08/02 03:48:09;;;;;;;23.80;5.90;;;;;;;24.73;53.79;100516.75;5111123;28;20617;-60
2021/08/02 03:50:37;;;;;;;25.90;6.50;;;;;;;24.71;53.51;100502.34;5111691;28;20651;-60
2021/08/02 03:53:02;;;;;;;23.73;6.93;;;;;;;24.80;54.01;100508.41;5111244;28;20170;-60
2021/08/02 03:55:31;;;;;;;27.47;7.00;;;;;;;24.59;54.32;100484.72;5111549;28;20296;-60
2021/08/02 03:57:57;;;;;;;26.23;7.10;;;;;;;24.80;54.27;100505.59;5110657;28;20231;-60
2021/08/02 04:00:24;;;;;;;36.23;7.13;;;;;;;24.93;54.29;100519.09;5111356;28;20170;-60
2021/08/02 04:02:50;;;;;;;22.27;5.83;;;;;;;25.01;54.41;100526.47;5111237;28;20181;-60
2021/08/02 04:05:17;;;;;;;23.10;6.03;;;;;;;24.99;54.34;100533.97;5111509;28;20663;-60
2021/08/02 04:07:42;;;;;;;20.77;6.07;;;;;;;24.98;54.17;100533.19;5110242;28;20251;-60
2021/08/02 04:10:09;;;;;;;22.57;6.37;;;;;;;24.89;54.33;100525.06;5111070;28;20178;-60
2021/08/02 04:12:34;;;;;;;22.50;6.17;;;;;;;25.05;54.80;100534.66;5111224;28;20601;-60
2021/08/02 04:15:00;;;;;;;25.30;6.83;;;;;;;25.07;55.02;100523.56;5111081;28;20178;-60
2021/08/02 04:17:25;;;;;;;18.43;6.33;;;;;;;24.95;54.70;100511.59;5110309;28;20256;-60
2021/08/02 04:19:51;;;;;;;22.60;6.10;;;;;;;25.12;54.72;100531.97;5111144;28;20563;-60
2021/08/02 04:22:16;;;;;;;23.03;6.53;;;;;;;25.06;54.12;100522.78;5111059;28;20185;-60
2021/08/02 04:24:41;;;;;;;25.07;6.67;;;;;;;25.22;54.38;100526.69;5111090;28;20224;-60
2021/08/02 04:27:07;;;;;;;20.80;6.80;;;;;;;25.24;53.16;100522.00;5109962;28;20201;-60
2021/08/02 04:29:33;;;;;;;16.93;5.73;;;;;;;25.36;53.34;100529.13;5110829;28;20182;-60
2021/08/02 04:31:58;;;;;;;24.87;6.83;;;;;;;25.45;53.61;100530.81;5111246;28;20176;-60
2021/08/02 04:34:23;;;;;;;23.17;6.67;;;;;;;25.51;53.64;100529.44;5111018;28;20178;-60
2021/08/02 04:36:49;;;;;;;24.60;6.93;;;;;;;25.57;53.50;100530.09;5109902;28;20170;-60
2021/08/02 04:39:14;;;;;;;18.73;6.60;;;;;;;25.61;53.71;100543.97;5111141;28;20181;-60
2021/08/02 04:41:40;;;;;;;23.93;6.37;;;;;;;25.57;53.05;100543.50;5111037;28;20174;-60
2021/08/02 04:44:06;;;;;;;24.23;7.00;;;;;;;25.56;53.30;100536.31;5110642;28;20229;-60
2021/08/02 04:46:31;;;;;;;27.83;7.20;;;;;;;25.43;53.92;100551.19;5106147;28;20207;-59
2021/08/02 04:48:57;;;;;;;28.03;6.93;;;;;;;25.21;55.12;100568.47;5101674;28;20690;-59
2021/08/02 04:51:22;;;;;;;26.70;7.00;;;;;;;24.75;55.02;100454.63;5113363;28;20259;-59
2021/08/02 04:53:48;;;;;;;23.63;7.03;;;;;;;25.64;56.11;100559.94;5113072;28;20202;-59
2021/08/02 04:56:13;;;;;;;23.60;7.07;;;;;;;25.60;58.41;100562.31;5097385;28;20611;-59
2021/08/02 04:58:38;;;;;;;25.13;7.30;;;;;;;25.62;58.78;100562.53;5101617;28;20183;-59
2021/08/02 05:01:04;;;;;;;26.80;7.37;;;;;;;25.77;57.72;100562.84;5123158;27;20185;-59
2021/08/02 05:03:29;;;;;;;23.20;7.07;;;;;;;25.90;55.66;100574.25;5122120;27;20224;-60
2021/08/02 05:05:55;;;;;;;23.23;6.47;;;;;;;25.95;49.22;100565.66;5113049;28;20672;-59
2021/08/02 05:08:22;;;;;;;20.10;6.30;;;;;;;26.05;49.23;100566.06;5097744;27;20549;-60
2021/08/02 05:10:47;;;;;;;20.57;6.40;;;;;;;26.15;50.10;100570.78;5112557;27;20670;-59
2021/08/02 05:13:13;;;;;;;24.70;6.33;;;;;;;26.15;49.88;100572.88;5091115;28;20198;-60
2021/08/02 05:15:39;;;;;;;25.33;8.03;;;;;;;26.25;54.00;100576.81;5106655;27;20196;-60
2021/08/02 05:18:04;;;;;;;28.67;8.00;;;;;;;26.21;55.90;100577.13;5108770;27;20192;-60
2021/08/02 05:20:30;;;;;;;25.93;7.43;;;;;;;26.25;56.55;100586.09;5108654;28;20186;-59
2021/08/02 05:22:55;;;;;;;25.97;8.03;;;;;;;26.34;56.88;100585.69;5104167;28;20194;-59
2021/08/02 05:25:21;;;;;;;28.40;8.20;;;;;;;26.38;57.50;100593.91;5105388;28;20211;-59
2021/08/02 05:27:51;;;;;;;27.67;8.03;;;;;;;26.06;56.67;100524.97;5102929;28;20245;-60
2021/08/02 05:30:17;;;;;;;27.57;7.63;;;;;;;26.54;56.30;100593.63;5096504;28;20208;-60
2021/08/02 05:32:43;;;;;;;26.97;7.83;;;;;;;26.74;55.26;100587.34;5087772;28;20687;-60
2021/08/02 05:35:10;;;;;;;24.87;7.03;;;;;;;26.98;54.50;100589.22;5114039;27;20244;-60
2021/08/02 05:37:35;;;;;;;22.27;7.37;;;;;;;27.17;54.91;100590.66;5111946;27;20258;-59
2021/08/02 05:40:01;;;;;;;28.20;7.37;;;;;;;26.98;55.17;100540.84;5111923;27;20258;-60
2021/08/02 05:42:26;;;;;;;30.50;7.70;;;;;;;27.51;54.46;100582.16;5104028;28;20317;-60
2021/08/02 05:47:38;;;;;;;28.10;7.72;;;;;;;27.15;51.98;100572.56;5104562;28;20271;-60
2021/08/02 05:50:04;;;;;;;28.98;8.05;;;;;;;27.44;53.09;100614.91;5104626;28;20183;-60
2021/08/02 05:52:29;;;;;;;24.92;7.95;;;;;;;27.18;53.29;100560.88;5109360;28;20261;-60
2021/08/02 05:54:55;;;;;;;22.07;7.83;;;;;;;27.50;53.35;100609.88;5100923;28;20643;-60
2021/08/02 05:57:21;;;;;;;25.50;7.57;;;;;;;27.48;53.79;100598.25;5088458;28;20178;-60
2021/08/02 05:59:47;;;;;;;27.23;7.45;;;;;;;27.49;54.35;100571.31;5107949;28;20265;-60
2021/08/02 06:02:12;;;;;;;33.00;8.48;;;;;;;27.79;53.06;100594.50;5107426;28;20261;-60
2021/08/02 06:04:38;;;;;;;47.67;9.63;;;;;;;28.07;52.02;100602.38;5105011;28;20178;-60
2021/08/02 06:07:03;;;;;;;16.98;6.47;;;;;;;28.07;49.87;100608.88;5106282;28;20214;-60
2021/08/02 06:09:29;;;;;;;28.08;7.22;;;;;;;28.12;49.84;100624.28;5109539;28;20716;-60
2021/08/02 06:11:54;;;;;;;21.70;7.07;;;;;;;28.23;50.53;100626.88;5108485;28;20228;-60
2021/08/02 06:14:20;;;;;;;26.05;6.95;;;;;;;28.26;46.73;100640.75;5109733;28;20696;-60
2021/08/02 06:16:45;;;;;;;26.13;6.75;;;;;;;28.35;47.96;100633.84;5109812;28;20186;-61
2021/08/02 06:19:11;;;;;;;18.45;6.85;;;;;;;28.53;49.05;100636.50;5110138;28;20224;-60
2021/08/02 06:21:36;;;;;;;25.05;6.93;;;;;;;28.58;48.35;100644.16;5109573;28;20198;-60
2021/08/02 06:24:02;;;;;;;22.38;6.75;;;;;;;28.79;47.91;100639.22;5109331;28;20690;-60
2021/08/02 06:26:28;;;;;;;22.15;7.00;;;;;;;28.84;48.59;100609.78;5108304;28;20197;-60
2021/08/02 06:28:53;;;;;;;36.00;7.47;;;;;;;29.15;48.21;100639.28;5107777;28;20182;-61
2021/08/02 06:31:19;;;;;;;22.83;6.80;;;;;;;29.05;48.45;100604.03;5089914;28;20278;-60
2021/08/02 06:33:44;;;;;;;31.25;6.90;;;;;;;28.89;47.73;100548.97;5109108;28;20185;-60
2021/08/02 06:36:10;;;;;;;26.30;7.07;;;;;;;29.35;48.15;100642.09;5108852;28;20186;-60
2021/08/02 06:38:36;;;;;;;17.77;6.03;;;;;;;28.82;46.70;100535.41;5110034;28;20189;-61
2021/08/02 06:41:03;;;;;;;23.70;6.43;;;;;;;29.55;45.62;100627.00;5108767;28;20190;-60
2021/08/02 06:43:29;;;;;;;22.70;6.35;;;;;;;29.10;44.09;100558.22;5109634;28;20261;-60
2021/08/02 06:45:55;;;;;;;25.88;6.40;;;;;;;29.73;44.49;100631.63;5107150;28;20770;-60
2021/08/02 06:48:21;;;;;;;21.80;6.47;;;;;;;29.94;44.13;100642.97;5110205;28;20268;-60
2021/08/02 06:50:47;;;;;;;21.20;5.93;;;;;;;30.03;44.39;100640.31;5099550;28;20186;-59
2021/08/02 06:53:12;;;;;;;23.63;6.40;;;;;;;29.76;45.61;100584.81;5094067;28;20187;-60
2021/08/02 06:55:38;;;;;;;24.13;6.65;;;;;;;30.29;46.11;100640.00;5095663;28;20176;-60
2021/08/02 06:58:03;;;;;;;24.63;5.93;;;;;;;30.42;46.42;100641.94;5107715;28;20269;-60
2021/08/02 07:00:29;;;;;;;25.25;6.32;;;;;;;30.49;46.58;100632.59;5108774;28;20182;-60
2021/08/02 07:02:57;;;;;;;19.92;6.25;;;;;;;30.53;46.30;100633.75;5108507;28;20705;-61
2021/08/02 07:05:22;;;;;;;22.23;6.68;;;;;;;30.75;44.85;100649.41;5109028;28;20182;-61
2021/08/02 07:07:48;;;;;;;21.98;5.68;;;;;;;30.88;43.92;100643.50;5107513;28;20198;-61
2021/08/02 07:10:14;;;;;;;25.80;5.43;;;;;;;31.00;41.76;100641.75;5088278;28;20243;-61
2021/08/02 07:12:39;;;;;;;20.98;5.88;;;;;;;31.13;40.50;100635.84;5097930;28;20262;-61
2021/08/02 07:15:05;;;;;;;27.17;5.93;;;;;;;31.21;39.57;100633.75;5107726;28;20232;-60
2021/08/02 07:17:31;;;;;;;23.98;5.97;;;;;;;31.38;39.13;100637.53;5100096;28;20198;-61
2021/08/02 07:19:56;;;;;;;23.45;5.53;;;;;;;31.26;38.58;100599.19;5099582;28;20184;-61
2021/08/02 07:22:22;;;;;;;22.50;6.05;;;;;;;31.54;38.73;100609.59;5099948;28;20185;-60
2021/08/02 07:24:47;;;;;;;20.67;5.82;;;;;;;31.68;38.48;100631.69;5105935;28;20956;-60
2021/08/02 07:27:13;;;;;;;23.15;5.43;;;;;;;31.51;37.67;100630.78;5104772;28;20267;-60
2021/08/02 07:29:38;;;;;;;46.72;6.63;;;;;;;31.59;38.93;100634.41;5105394;28;20188;-60
2021/08/02 07:32:04;;;;;;;20.60;5.47;;;;;;;31.70;39.18;100634.75;5104284;28;20196;-61
2021/08/02 07:34:30;;;;;;;15.32;5.82;;;;;;;31.65;39.12;100621.41;5107326;28;20269;-60
2021/08/02 07:36:55;;;;;;;23.80;6.07;;;;;;;31.46;38.03;100574.50;5106720;28;20181;-60
2021/08/02 07:39:21;;;;;;;19.23;5.65;;;;;;;31.99;39.03;100630.22;5103551;28;20190;-61
2021/08/02 07:41:46;;;;;;;26.10;6.25;;;;;;;31.58;38.26;100516.19;5107502;28;20243;-60
2021/08/02 07:44:12;;;;;;;23.45;5.68;;;;;;;32.44;36.51;100624.22;5107205;28;20271;-61
2021/08/02 07:46:37;;;;;;;13.20;4.45;;;;;;;32.57;31.17;100617.44;5107361;28;20194;-60
2021/08/02 07:49:03;;;;;;;17.80;5.15;;;;;;;32.15;33.77;100524.84;5107039;28;20182;-61
2021/08/02 07:51:30;;;;;;;19.65;5.32;;;;;;;32.98;32.22;100626.09;5107579;28;20190;-61
2021/08/02 07:53:58;;;;;;;22.75;5.32;;;;;;;33.15;31.66;100628.97;5109579;28;20310;-61
2021/08/02 07:56:24;;;;;;;18.40;4.85;;;;;;;33.30;31.23;100633.81;5106900;28;20207;-61
2021/08/02 07:58:49;;;;;;;18.52;5.22;;;;;;;33.52;32.70;100624.19;5098884;28;20182;-60
2021/08/02 08:01:15;;;;;;;16.75;4.63;;;;;;;33.65;32.13;100624.59;5097465;28;20187;-61
2021/08/02 08:03:42;;;;;;;16.58;4.57;;;;;;;33.72;29.46;100632.38;5097973;28;20542;-60
2021/08/02 08:06:08;;;;;;;22.98;4.70;;;;;;;33.94;31.97;100631.31;5102638;28;20241;-61
2021/08/02 08:08:33;;;;;;;19.67;4.50;;;;;;;34.01;29.05;100624.72;5107138;28;20691;-60
2021/08/02 08:10:59;;;;;;;17.30;4.35;;;;;;;34.20;31.40;100633.44;5108222;27;20178;-61
2021/08/02 08:13:24;;;;;;;21.83;5.00;;;;;;;34.30;28.34;100634.28;5107557;28;20708;-61
2021/08/02 08:15:50;;;;;;;20.80;4.93;;;;;;;34.44;27.94;100632.53;5102652;28;20202;-60
2021/08/02 08:18:15;;;;;;;19.75;4.88;;;;;;;34.50;28.95;100633.00;5093932;28;20186;-60
2021/08/02 08:20:41;;;;;;;17.60;4.93;;;;;;;34.69;27.61;100638.84;5107815;28;20657;-60
2021/08/02 08:23:06;;;;;;;22.38;4.63;;;;;;;34.82;27.08;100626.19;5108189;28;20254;-61
2021/08/02 08:25:32;;;;;;;17.38;4.43;;;;;;;34.84;26.91;100627.09;5108578;28;20182;-60
2021/08/02 08:27:58;;;;;;;22.88;4.90;;;;;;;34.98;25.49;100630.31;5106488;28;20190;-61
2021/08/02 08:30:24;;;;;;;19.48;4.72;;;;;;;34.53;27.73;100539.72;5107303;28;20189;-60
2021/08/02 08:32:50;;;;;;;19.95;4.97;;;;;;;34.06;26.81;100456.16;5103788;28;20231;-60
2021/08/02 08:35:16;;;;;;;19.45;4.82;;;;;;;35.28;27.18;100624.00;5106873;28;20636;-60
2021/08/02 08:37:41;;;;;;;16.90;4.72;;;;;;;35.31;24.60;100622.81;5106523;28;20209;-61
2021/08/02 08:40:08;;;;;;;17.60;4.47;;;;;;;35.33;25.62;100620.06;5106381;28;20625;-61
2021/08/02 08:42:34;;;;;;;19.75;4.88;;;;;;;35.44;25.73;100625.22;5105654;28;20253;-61
2021/08/02 08:45:00;;;;;;;18.98;4.97;;;;;;;35.64;26.67;100620.97;5106300;28;20287;-61
2021/08/02 08:47:26;;;;;;;20.98;4.22;;;;;;;35.63;25.67;100610.81;5106863;28;20256;-61
2021/08/02 08:49:51;;;;;;;18.48;4.53;;;;;;;35.11;25.26;100517.56;5081613;28;20202;-61
2021/08/02 08:52:17;;;;;;;17.25;4.57;;;;;;;35.77;25.32;100614.78;5101376;28;20487;-61
2021/08/02 08:54:43;;;;;;;25.30;4.82;;;;;;;35.65;25.55;100596.53;5100796;28;20575;-61
2021/08/02 08:57:11;;;;;;;20.20;4.40;;;;;;;35.85;25.32;100624.00;5095639;28;20182;-60
2021/08/02 08:59:56;;;;;;;19.98;4.60;;;;;;;35.93;25.06;100615.97;5109050;28;20556;-61
2021/08/02 09:02:27;;;;;;;24.25;4.55;;;;;;;35.89;24.37;100609.88;5100363;28;20209;-61
2021/08/02 09:04:54;;;;;;;21.75;4.43;;;;;;;36.05;24.10;100611.81;5107023;28;20262;-61
2021/08/02 09:07:40;;;;;;;15.57;4.47;;;;;;;36.03;25.32;100625.34;5106099;28;20291;-60
2021/08/02 09:10:15;;;;;;;22.83;4.80;;;;;;;36.19;25.07;100615.75;5098153;28;20171;-61
2021/08/02 09:13:00;;;;;;;18.70;4.68;;;;;;;36.13;24.76;100618.16;5102537;28;20173;-61
2021/08/02 09:15:43;;;;;;;16.17;4.75;;;;;;;36.20;23.19;100616.50;5102009;28;20662;-61
2021/08/02 09:18:14;;;;;;;15.55;4.38;;;;;;;36.40;24.53;100610.03;5100586;28;20219;-60
2021/08/02 09:20:39;;;;;;;21.67;4.65;;;;;;;36.45;23.12;100616.88;5102824;28;20182;-60
2021/08/02 09:23:06;;;;;;;18.27;4.88;;;;;;;36.38;23.83;100609.13;5107617;28;20178;-61
2021/08/02 09:25:32;;;;;;;15.35;4.20;;;;;;;36.41;24.36;100602.16;5104125;28;20204;-60
2021/08/02 09:27:58;;;;;;;23.70;4.82;;;;;;;36.12;24.46;100521.47;5106709;28;20190;-61
2021/08/02 09:30:26;;;;;;;18.48;4.88;;;;;;;36.90;24.45;100610.72;5108539;28;20186;-60
2021/08/02 09:33:02;;;;;;;17.63;4.25;;;;;;;37.07;23.86;100609.69;5106019;28;20201;-60
2021/08/02 09:35:41;;;;;;;17.30;4.15;;;;;;;36.99;22.94;100606.25;5106555;28;20173;-61
2021/08/02 09:38:07;;;;;;;20.95;4.75;;;;;;;37.10;23.31;100606.34;5104966;28;20602;-61
2021/08/02 09:40:56;;;;;;;26.90;5.38;;;;;;;37.15;22.17;100613.91;5079706;28;20673;-61
2021/08/02 09:43:24;;;;;;;18.45;4.50;;;;;;;37.08;22.55;100588.88;5100232;28;20218;-60
2021/08/02 09:45:55;;;;;;;21.60;5.20;;;;;;;37.29;23.47;100605.44;5103910;28;20186;-61
2021/08/02 09:48:32;;;;;;;19.50;4.55;;;;;;;37.37;22.54;100598.06;5096277;28;20265;-61
2021/08/02 09:51:07;;;;;;;19.15;5.00;;;;;;;37.42;22.36;100602.00;5104172;28;20171;-61
2021/08/02 09:53:37;;;;;;;22.30;5.10;;;;;;;37.47;22.77;100600.91;5097528;28;20185;-60
2021/08/02 09:56:02;;;;;;;15.18;4.90;;;;;;;37.40;23.30;100596.06;5089904;28;20183;-61
2021/08/02 09:58:28;;;;;;;15.95;4.55;;;;;;;37.43;23.00;100600.63;5096877;28;20182;-60
2021/08/02 10:00:54;;;;;;;20.80;4.90;;;;;;;37.54;23.04;100603.56;5098761;28;20217;-60
2021/08/02 10:03:20;;;;;;;20.38;5.38;;;;;;;37.41;22.03;100592.56;5108242;28;20178;-60
2021/08/02 10:05:49;;;;;;;21.38;4.68;;;;;;;37.49;22.15;100598.13;5103393;28;20192;-61
2021/08/02 10:08:17;;;;;;;17.67;4.65;;;;;;;37.47;21.94;100595.13;5098814;28;20186;-60
2021/08/02 10:10:43;;;;;;;19.27;5.05;;;;;;;37.67;23.03;100596.47;5078677;28;20241;-59
2021/08/02 10:13:08;;;;;;;19.45;4.18;;;;;;;37.83;22.46;100601.16;5099061;28;20604;-60
2021/08/02 10:15:35;;;;;;;19.20;5.07;;;;;;;37.82;22.46;100593.13;5073639;28;20241;-61
2021/08/02 10:18:05;;;;;;;20.67;5.50;;;;;;;37.92;21.67;100593.78;5078183;28;20213;-61
2021/08/02 10:20:34;;;;;;;17.60;4.80;;;;;;;37.89;21.42;100595.03;5079068;28;20182;-61
2021/08/02 10:23:02;;;;;;;15.57;4.72;;;;;;;37.89;21.82;100601.56;5081233;28;20177;-60
2021/08/02 10:25:40;;;;;;;21.85;4.55;;;;;;;37.68;21.03;100598.72;5076116;28;20184;-67
2021/08/02 10:28:14;;;;;;;17.00;4.78;;;;;;;37.71;21.98;100585.16;5078594;28;20205;-67
2021/08/02 10:30:41;;;;;;;17.25;4.68;;;;;;;37.55;22.50;100534.94;5083946;28;20190;-68
2021/08/02 10:33:09;;;;;;;16.58;4.93;;;;;;;38.08;21.90;100600.63;5081970;28;20179;-66
2021/08/02 10:35:42;;;;;;;20.38;5.38;;;;;;;38.22;20.31;100593.59;5090097;28;20183;-60
2021/08/02 10:38:13;;;;;;;16.58;4.10;;;;;;;38.13;18.52;100588.66;5084537;28;20183;-61
2021/08/02 10:40:49;;;;;;;13.85;3.83;;;;;;;38.20;18.44;100596.38;5068133;28;20185;-65
2021/08/02 10:43:38;;;;;;;20.55;4.53;;;;;;;38.26;19.36;100593.09;5089350;28;20275;-66
2021/08/02 10:46:27;;;;;;;19.88;4.95;;;;;;;38.27;19.25;100594.59;5088950;28;20178;-60
2021/08/02 10:49:06;;;;;;;18.17;4.10;;;;;;;38.21;18.07;100582.63;5085374;28;20603;-61
2021/08/02 10:51:43;;;;;;;15.55;4.45;;;;;;;38.26;19.40;100569.94;5085296;28;20185;-68
2021/08/02 10:54:09;;;;;;;18.13;3.72;;;;;;;38.31;17.87;100592.72;5090491;28;20174;-67
2021/08/02 10:56:34;;;;;;;17.15;4.40;;;;;;;38.29;17.01;100591.84;5090002;28;20252;-67
2021/08/02 10:59:00;;;;;;;15.75;4.60;;;;;;;38.38;18.17;100590.97;5089536;28;20183;-67
2021/08/02 11:01:27;;;;;;;13.63;4.25;;;;;;;38.56;17.98;100589.22;5089278;28;20677;-67
2021/08/02 11:04:13;;;;;;;17.75;4.43;;;;;;;38.64;16.84;100584.69;5089111;28;20182;-68
2021/08/02 11:06:39;;;;;;;16.15;4.10;;;;;;;38.65;17.45;100580.38;5089479;28;20206;-67
2021/08/02 11:09:04;;;;;;;14.57;4.53;;;;;;;38.69;18.50;100595.13;5088542;28;20240;-68
2021/08/02 11:11:34;;;;;;;15.32;4.20;;;;;;;38.66;17.13;100586.94;5088056;28;20183;-67
2021/08/02 11:14:11;;;;;;;15.80;3.78;;;;;;;38.60;17.35;100581.53;5089651;28;20183;-67
2021/08/02 11:16:52;;;;;;;15.68;4.22;;;;;;;38.77;16.96;100582.53;5086023;28;20191;-67
2021/08/02 11:19:29;;;;;;;13.48;3.63;;;;;;;38.63;17.50;100590.34;5086145;28;20293;-68
2021/08/02 11:22:06;;;;;;;15.95;4.50;;;;;;;38.53;17.21;100581.06;5088463;28;20204;-67
2021/08/02 11:24:39;;;;;;;21.40;4.43;;;;;;;38.38;16.76;100585.19;5089154;28;20175;-67